sensor_id;sensor_type;location;lat;lon;timestamp;pressure;altitude;pressure_sealevel;temperature;humidity
44996;BME280;30729;49.486;10.792;2022-10-31T00:00:54;98180.50;;;11.21;100.00
44996;BME280;30729;49.486;10.792;2022-10-31T00:03:19;98176.22;;;10.98;100.00
44996;BME280;30729;49.486;10.792;2022-10-31T00:05:47;98175.63;;;11.03;100.00
44996;BME280;30729;49.486;10.792;2022-10-31T00:08:13;98181.44;;;10.96;100.00
44996;BME280;30729;49.486;10.792;2022-10-31T00:10:40;98192.88;;;10.89;100.00
44996;BME280;30729;49.486;10.792;2022-10-31T00:13:07;98182.38;;;10.93;100.00
44996;BME280;30729;49.486;10.792;2022-10-31T00:15:36;98188.97;;;11.08;100.00
44996;BME280;30729;49.486;10.792;2022-10-31T00:18:02;98184.34;;;11.15;100.00
44996;BME280;30729;49.486;10.792;2022-10-31T00:20:28;98180.47;;;11.12;100.00
44996;BME280;30729;49.486;10.792;2022-10-31T00:22:57;98182.28;;;11.37;100.00
44996;BME280;30729;49.486;10.792;2022-10-31T00:25:23;98171.59;;;11.45;100.00
44996;BME280;30729;49.486;10.792;2022-10-31T00:27:48;98157.09;;;11.59;100.00
44996;BME280;30729;49.486;10.792;2022-10-31T00:30:13;98165.38;;;11.41;100.00
44996;BME280;30729;49.486;10.792;2022-10-31T00:32:39;98158.41;;;11.36;100.00
44996;BME280;30729;49.486;10.792;2022-10-31T00:35:05;98160.19;;;11.12;100.00
44996;BME280;30729;49.486;10.792;2022-10-31T00:37:30;98168.53;;;10.80;100.00
44996;BME280;30729;49.486;10.792;2022-10-31T00:39:55;98158.38;;;10.96;100.00
44996;BME280;30729;49.486;10.792;2022-10-31T00:42:21;98172.78;;;10.94;100.00
44996;BME280;30729;49.486;10.792;2022-10-31T00:44:46;98175.66;;;10.81;100.00
44996;BME280;30729;49.486;10.792;2022-10-31T00:47:11;98172.16;;;10.68;100.00
44996;BME280;30729;49.486;10.792;2022-10-31T00:49:37;98173.78;;;10.56;100.00
44996;BME280;30729;49.486;10.792;2022-10-31T00:52:02;98168.00;;;10.73;100.00
44996;BME280;30729;49.486;10.792;2022-10-31T00:54:27;98174.59;;;10.88;100.00
44996;BME280;30729;49.486;10.792;2022-10-31T00:56:53;98174.03;;;10.93;100.00
44996;BME280;30729;49.486;10.792;2022-10-31T00:59:18;98174.72;;;11.06;100.00
44996;BME280;30729;49.486;10.792;2022-10-31T01:01:43;98177.28;;;11.01;100.00
44996;BME280;30729;49.486;10.792;2022-10-31T01:04:09;98172.91;;;10.91;100.00
44996;BME280;30729;49.486;10.792;2022-10-31T01:06:34;98169.13;;;11.06;100.00
44996;BME280;30729;49.486;10.792;2022-10-31T01:08:59;98173.19;;;11.15;100.00
44996;BME280;30729;49.486;10.792;2022-10-31T01:11:25;98176.94;;;11.21;100.00
44996;BME280;30729;49.486;10.792;2022-10-31T01:13:52;98174.41;;;11.14;100.00
44996;BME280;30729;49.486;10.792;2022-10-31T01:16:20;98172.09;;;11.12;100.00
44996;BME280;30729;49.486;10.792;2022-10-31T01:18:46;98172.53;;;11.10;100.00
44996;BME280;30729;49.486;10.792;2022-10-31T01:21:14;98174.41;;;11.14;100.00
44996;BME280;30729;49.486;10.792;2022-10-31T01:23:41;98172.44;;;11.23;100.00
44996;BME280;30729;49.486;10.792;2022-10-31T01:26:10;98171.72;;;11.32;100.00
44996;BME280;30729;49.486;10.792;2022-10-31T01:28:38;98175.75;;;11.31;100.00
44996;BME280;30729;49.486;10.792;2022-10-31T01:31:08;98174.16;;;11.21;100.00
44996;BME280;30729;49.486;10.792;2022-10-31T01:33:34;98171.97;;;10.84;100.00
44996;BME280;30729;49.486;10.792;2022-10-31T01:36:00;98166.41;;;10.63;100.00
44996;BME280;30729;49.486;10.792;2022-10-31T01:38:26;98172.03;;;10.28;100.00
44996;BME280;30729;49.486;10.792;2022-10-31T01:40:51;98167.13;;;10.19;100.00
44996;BME280;30729;49.486;10.792;2022-10-31T01:43:17;98180.34;;;9.93;100.00
44996;BME280;30729;49.486;10.792;2022-10-31T01:45:46;98175.59;;;9.81;100.00
44996;BME280;30729;49.486;10.792;2022-10-31T01:48:17;98175.63;;;9.68;100.00
44996;BME280;30729;49.486;10.792;2022-10-31T01:50:47;98172.72;;;9.59;100.00
44996;BME280;30729;49.486;10.792;2022-10-31T01:53:15;98181.16;;;9.68;100.00
44996;BME280;30729;49.486;10.792;2022-10-31T01:55:44;98175.63;;;9.68;100.00
44996;BME280;30729;49.486;10.792;2022-10-31T01:58:22;98175.69;;;9.90;100.00
44996;BME280;30729;49.486;10.792;2022-10-31T02:00:52;98174.13;;;9.89;100.00
44996;BME280;30729;49.486;10.792;2022-10-31T02:03:20;98171.00;;;9.87;100.00
44996;BME280;30729;49.486;10.792;2022-10-31T02:05:47;98182.97;;;10.09;100.00
44996;BME280;30729;49.486;10.792;2022-10-31T02:08:17;98169.91;;;10.19;100.00
44996;BME280;30729;49.486;10.792;2022-10-31T02:10:44;98166.19;;;10.35;100.00
44996;BME280;30729;49.486;10.792;2022-10-31T02:13:10;98165.69;;;10.49;100.00
44996;BME280;30729;49.486;10.792;2022-10-31T02:15:39;98159.41;;;10.36;100.00
44996;BME280;30729;49.486;10.792;2022-10-31T02:18:06;98154.41;;;10.18;100.00
44996;BME280;30729;49.486;10.792;2022-10-31T02:20:48;98168.97;;;10.35;100.00
44996;BME280;30729;49.486;10.792;2022-10-31T02:26:10;98157.41;;;10.58;100.00
44996;BME280;30729;49.486;10.792;2022-10-31T02:29:06;98144.31;;;10.46;100.00
44996;BME280;30729;49.486;10.792;2022-10-31T02:34:55;98140.47;;;10.53;100.00
44996;BME280;30729;49.486;10.792;2022-10-31T02:42:51;98135.91;;;10.59;100.00
44996;BME280;30729;49.486;10.792;2022-10-31T02:45:26;98139.00;;;10.61;100.00
44996;BME280;30729;49.486;10.792;2022-10-31T02:47:56;98137.97;;;10.68;100.00
44996;BME280;30729;49.486;10.792;2022-10-31T02:50:28;98138.16;;;10.51;100.00
44996;BME280;30729;49.486;10.792;2022-10-31T02:52:55;98137.13;;;10.58;100.00
44996;BME280;30729;49.486;10.792;2022-10-31T02:57:54;98139.56;;;10.56;100.00
44996;BME280;30729;49.486;10.792;2022-10-31T03:00:22;98143.47;;;10.58;100.00
44996;BME280;30729;49.486;10.792;2022-10-31T03:05:40;98141.53;;;10.68;100.00
44996;BME280;30729;49.486;10.792;2022-10-31T03:10:57;98136.97;;;10.62;100.00
44996;BME280;30729;49.486;10.792;2022-10-31T03:16:06;98130.06;;;10.44;100.00
44996;BME280;30729;49.486;10.792;2022-10-31T03:18:39;98135.31;;;10.42;100.00
44996;BME280;30729;49.486;10.792;2022-10-31T03:24:04;98137.44;;;10.03;100.00
44996;BME280;30729;49.486;10.792;2022-10-31T03:26:32;98135.50;;;9.91;100.00
44996;BME280;30729;49.486;10.792;2022-10-31T03:29:03;98133.84;;;9.81;100.00
44996;BME280;30729;49.486;10.792;2022-10-31T03:31:34;98143.66;;;9.73;100.00
44996;BME280;30729;49.486;10.792;2022-10-31T03:34:02;98142.91;;;9.72;100.00
44996;BME280;30729;49.486;10.792;2022-10-31T03:36:30;98151.72;;;9.45;100.00
44996;BME280;30729;49.486;10.792;2022-10-31T03:38:58;98144.06;;;9.49;100.00
44996;BME280;30729;49.486;10.792;2022-10-31T03:41:29;98161.31;;;9.44;100.00
44996;BME280;30729;49.486;10.792;2022-10-31T03:44:07;98161.31;;;9.44;100.00
44996;BME280;30729;49.486;10.792;2022-10-31T03:46:33;98156.31;;;9.26;100.00
44996;BME280;30729;49.486;10.792;2022-10-31T03:48:59;98163.53;;;9.24;100.00
44996;BME280;30729;49.486;10.792;2022-10-31T03:51:36;98161.31;;;9.19;100.00
44996;BME280;30729;49.486;10.792;2022-10-31T03:54:29;98169.53;;;9.10;100.00
44996;BME280;30729;49.486;10.792;2022-10-31T03:59:36;98166.63;;;9.51;100.00
44996;BME280;30729;49.486;10.792;2022-10-31T04:02:06;98161.38;;;9.66;100.00
44996;BME280;30729;49.486;10.792;2022-10-31T04:04:33;98161.03;;;9.77;100.00
44996;BME280;30729;49.486;10.792;2022-10-31T04:07:01;98161.44;;;9.88;100.00
44996;BME280;30729;49.486;10.792;2022-10-31T04:09:31;98160.88;;;9.93;100.00
44996;BME280;30729;49.486;10.792;2022-10-31T04:11:59;98163.09;;;9.98;100.00
44996;BME280;30729;49.486;10.792;2022-10-31T04:14:27;98156.78;;;9.85;100.00
44996;BME280;30729;49.486;10.792;2022-10-31T04:16:54;98154.03;;;9.72;100.00
44996;BME280;30729;49.486;10.792;2022-10-31T04:19:19;98152.34;;;9.75;100.00
44996;BME280;30729;49.486;10.792;2022-10-31T04:21:45;98152.31;;;9.88;100.00
44996;BME280;30729;49.486;10.792;2022-10-31T04:24:10;98149.75;;;9.93;100.00
44996;BME280;30729;49.486;10.792;2022-10-31T04:26:36;98147.34;;;10.04;100.00
44996;BME280;30729;49.486;10.792;2022-10-31T04:29:02;98145.34;;;10.05;100.00
44996;BME280;30729;49.486;10.792;2022-10-31T04:31:28;98143.47;;;10.02;100.00
44996;BME280;30729;49.486;10.792;2022-10-31T04:33:53;98150.72;;;9.99;100.00
44996;BME280;30729;49.486;10.792;2022-10-31T04:36:19;98147.84;;;9.90;100.00
44996;BME280;30729;49.486;10.792;2022-10-31T04:38:45;98145.53;;;9.89;100.00
44996;BME280;30729;49.486;10.792;2022-10-31T04:41:10;98145.41;;;9.92;100.00
44996;BME280;30729;49.486;10.792;2022-10-31T04:43:35;98138.94;;;9.95;100.00
44996;BME280;30729;49.486;10.792;2022-10-31T04:46:01;98137.69;;;9.96;100.00
44996;BME280;30729;49.486;10.792;2022-10-31T04:48:27;98141.31;;;9.84;100.00
44996;BME280;30729;49.486;10.792;2022-10-31T04:50:52;98142.34;;;9.65;100.00
44996;BME280;30729;49.486;10.792;2022-10-31T04:53:17;98139.25;;;9.63;100.00
44996;BME280;30729;49.486;10.792;2022-10-31T04:55:43;98138.91;;;9.48;100.00
44996;BME280;30729;49.486;10.792;2022-10-31T04:58:08;98136.03;;;9.39;100.00
44996;BME280;30729;49.486;10.792;2022-10-31T05:00:33;98135.72;;;9.24;100.00
44996;BME280;30729;49.486;10.792;2022-10-31T05:02:59;98136.75;;;8.92;100.00
44996;BME280;30729;49.486;10.792;2022-10-31T05:05:27;98136.28;;;8.93;100.00
44996;BME280;30729;49.486;10.792;2022-10-31T05:07:53;98134.97;;;8.98;100.00
44996;BME280;30729;49.486;10.792;2022-10-31T05:10:21;98129.06;;;9.08;100.00
44996;BME280;30729;49.486;10.792;2022-10-31T05:12:48;98130.06;;;9.02;100.00
44996;BME280;30729;49.486;10.792;2022-10-31T05:15:14;98133.72;;;9.12;100.00
44996;BME280;30729;49.486;10.792;2022-10-31T05:17:40;98140.97;;;8.96;100.00
44996;BME280;30729;49.486;10.792;2022-10-31T05:20:06;98143.84;;;8.93;100.00
44996;BME280;30729;49.486;10.792;2022-10-31T05:22:32;98140.38;;;8.76;100.00
44996;BME280;30729;49.486;10.792;2022-10-31T05:24:57;98135.50;;;8.80;100.00
44996;BME280;30729;49.486;10.792;2022-10-31T05:27:22;98144.63;;;8.93;100.00
44996;BME280;30729;49.486;10.792;2022-10-31T05:29:48;98132.38;;;9.03;100.00
44996;BME280;30729;49.486;10.792;2022-10-31T05:32:13;98126.84;;;9.03;100.00
44996;BME280;30729;49.486;10.792;2022-10-31T05:34:38;98133.72;;;9.12;100.00
44996;BME280;30729;49.486;10.792;2022-10-31T05:37:04;98140.31;;;9.18;100.00
44996;BME280;30729;49.486;10.792;2022-10-31T05:39:29;98140.63;;;9.20;100.00
44996;BME280;30729;49.486;10.792;2022-10-31T05:41:54;98141.41;;;9.20;100.00
44996;BME280;30729;49.486;10.792;2022-10-31T05:44:20;98143.28;;;9.36;100.00
44996;BME280;30729;49.486;10.792;2022-10-31T05:46:46;98138.50;;;9.37;100.00
44996;BME280;30729;49.486;10.792;2022-10-31T05:49:11;98134.38;;;9.41;100.00
44996;BME280;30729;49.486;10.792;2022-10-31T05:51:37;98143.03;;;9.43;100.00
44996;BME280;30729;49.486;10.792;2022-10-31T05:54:02;98146.50;;;9.34;100.00
44996;BME280;30729;49.486;10.792;2022-10-31T05:56:28;98133.16;;;9.29;100.00
44996;BME280;30729;49.486;10.792;2022-10-31T05:58:54;98136.97;;;9.36;100.00
44996;BME280;30729;49.486;10.792;2022-10-31T06:01:19;98131.50;;;9.32;100.00
44996;BME280;30729;49.486;10.792;2022-10-31T06:03:44;98131.25;;;9.39;100.00
44996;BME280;30729;49.486;10.792;2022-10-31T06:06:10;98131.91;;;9.43;100.00
44996;BME280;30729;49.486;10.792;2022-10-31T06:08:35;98138.81;;;9.39;100.00
44996;BME280;30729;49.486;10.792;2022-10-31T06:11:01;98130.25;;;9.46;100.00
44996;BME280;30729;49.486;10.792;2022-10-31T06:13:26;98135.72;;;9.37;100.00
44996;BME280;30729;49.486;10.792;2022-10-31T06:15:51;98129.50;;;9.20;100.00
44996;BME280;30729;49.486;10.792;2022-10-31T06:18:17;98127.72;;;9.26;100.00
44996;BME280;30729;49.486;10.792;2022-10-31T06:20:42;98131.50;;;9.32;100.00
44996;BME280;30729;49.486;10.792;2022-10-31T06:23:07;98131.16;;;9.43;100.00
44996;BME280;30729;49.486;10.792;2022-10-31T06:25:34;98132.59;;;9.47;100.00
44996;BME280;30729;49.486;10.792;2022-10-31T06:28:00;98141.38;;;9.46;100.00
44996;BME280;30729;49.486;10.792;2022-10-31T06:30:25;98137.81;;;9.45;100.00
44996;BME280;30729;49.486;10.792;2022-10-31T06:32:51;98146.59;;;9.56;100.00
44996;BME280;30729;49.486;10.792;2022-10-31T06:35:17;98142.91;;;9.59;100.00
44996;BME280;30729;49.486;10.792;2022-10-31T06:37:42;98143.47;;;9.54;100.00
44996;BME280;30729;49.486;10.792;2022-10-31T06:40:08;98142.72;;;9.41;100.00
44996;BME280;30729;49.486;10.792;2022-10-31T06:42:34;98138.97;;;9.35;100.00
44996;BME280;30729;49.486;10.792;2022-10-31T06:44:59;98141.75;;;9.35;100.00
44996;BME280;30729;49.486;10.792;2022-10-31T06:47:25;98147.84;;;9.17;100.00
44996;BME280;30729;49.486;10.792;2022-10-31T06:49:50;98143.09;;;9.18;100.00
44996;BME280;30729;49.486;10.792;2022-10-31T06:52:15;98143.41;;;9.20;100.00
44996;BME280;30729;49.486;10.792;2022-10-31T06:54:41;98141.41;;;9.20;100.00
44996;BME280;30729;49.486;10.792;2022-10-31T06:57:06;98142.28;;;9.30;100.00
44996;BME280;30729;49.486;10.792;2022-10-31T06:59:33;98148.38;;;9.50;100.00
44996;BME280;30729;49.486;10.792;2022-10-31T07:01:58;98146.91;;;9.71;100.00
44996;BME280;30729;49.486;10.792;2022-10-31T07:04:24;98149.66;;;9.84;100.00
44996;BME280;30729;49.486;10.792;2022-10-31T07:06:52;98152.09;;;9.82;100.00
44996;BME280;30729;49.486;10.792;2022-10-31T07:09:17;98154.34;;;9.74;100.00
44996;BME280;30729;49.486;10.792;2022-10-31T07:11:43;98149.56;;;9.75;100.00
44996;BME280;30729;49.486;10.792;2022-10-31T07:14:08;98153.44;;;9.77;100.00
44996;BME280;30729;49.486;10.792;2022-10-31T07:16:34;98152.34;;;9.75;100.00
44996;BME280;30729;49.486;10.792;2022-10-31T07:18:59;98170.47;;;9.79;100.00
44996;BME280;30729;49.486;10.792;2022-10-31T07:21:24;98165.22;;;9.94;100.00
44996;BME280;30729;49.486;10.792;2022-10-31T07:23:50;98175.19;;;10.04;100.00
44996;BME280;30729;49.486;10.792;2022-10-31T07:26:15;98170.97;;;10.00;100.00
44996;BME280;30729;49.486;10.792;2022-10-31T07:28:40;98164.31;;;9.97;100.00
44996;BME280;30729;49.486;10.792;2022-10-31T07:31:06;98169.75;;;10.01;100.00
44996;BME280;30729;49.486;10.792;2022-10-31T07:33:31;98174.28;;;10.07;100.00
44996;BME280;30729;49.486;10.792;2022-10-31T07:35:56;98171.81;;;10.09;100.00
44996;BME280;30729;49.486;10.792;2022-10-31T07:38:22;98169.16;;;10.19;100.00
44996;BME280;30729;49.486;10.792;2022-10-31T07:40:51;98167.44;;;10.21;100.00
44996;BME280;30729;49.486;10.792;2022-10-31T07:43:20;98179.03;;;10.32;100.00
44996;BME280;30729;49.486;10.792;2022-10-31T07:45:52;98171.50;;;10.42;100.00
44996;BME280;30729;49.486;10.792;2022-10-31T07:48:18;98174.94;;;10.46;100.00
44996;BME280;30729;49.486;10.792;2022-10-31T07:50:44;98169.38;;;10.46;100.00
44996;BME280;30729;49.486;10.792;2022-10-31T07:53:11;98171.63;;;10.39;100.00
44996;BME280;30729;49.486;10.792;2022-10-31T07:55:37;98169.44;;;10.33;100.00
44996;BME280;30729;49.486;10.792;2022-10-31T07:58:03;98171.28;;;10.49;100.00
44996;BME280;30729;49.486;10.792;2022-10-31T08:00:29;98171.28;;;10.49;100.00
44996;BME280;30729;49.486;10.792;2022-10-31T08:03:03;98170.56;;;10.58;100.00
44996;BME280;30729;49.486;10.792;2022-10-31T08:05:30;98162.56;;;10.69;100.00
44996;BME280;30729;49.486;10.792;2022-10-31T08:07:56;98172.22;;;10.77;100.00
44996;BME280;30729;49.486;10.792;2022-10-31T08:10:23;98169.09;;;10.75;100.00
44996;BME280;30729;49.486;10.792;2022-10-31T08:12:55;98164.72;;;10.96;100.00
44996;BME280;30729;49.486;10.792;2022-10-31T08:15:21;98165.41;;;11.09;100.00
44996;BME280;30729;49.486;10.792;2022-10-31T08:17:46;98167.34;;;11.22;100.00
44996;BME280;30729;49.486;10.792;2022-10-31T08:20:11;98163.31;;;11.23;100.00
44996;BME280;30729;49.486;10.792;2022-10-31T08:22:37;98165.78;;;11.21;100.00
44996;BME280;30729;49.486;10.792;2022-10-31T08:25:02;98160.88;;;11.34;100.00
44996;BME280;30729;49.486;10.792;2022-10-31T08:27:28;98153.78;;;11.42;100.00
44996;BME280;30729;49.486;10.792;2022-10-31T08:29:53;98152.09;;;11.54;100.00
44996;BME280;30729;49.486;10.792;2022-10-31T08:32:18;98149.50;;;11.59;100.00
44996;BME280;30729;49.486;10.792;2022-10-31T08:34:44;98153.25;;;11.75;100.00
44996;BME280;30729;49.486;10.792;2022-10-31T08:37:09;98149.25;;;11.85;100.00
44996;BME280;30729;49.486;10.792;2022-10-31T08:39:35;98153.63;;;11.95;100.00
44996;BME280;30729;49.486;10.792;2022-10-31T08:42:00;98145.88;;;11.99;100.00
44996;BME280;30729;49.486;10.792;2022-10-31T08:44:25;98147.72;;;12.02;100.00
44996;BME280;30729;49.486;10.792;2022-10-31T08:46:51;98146.81;;;12.05;100.00
44996;BME280;30729;49.486;10.792;2022-10-31T08:49:16;98137.34;;;12.03;100.00
44996;BME280;30729;49.486;10.792;2022-10-31T08:51:41;98148.06;;;12.14;100.00
44996;BME280;30729;49.486;10.792;2022-10-31T08:54:07;98143.72;;;12.22;100.00
44996;BME280;30729;49.486;10.792;2022-10-31T08:56:32;98145.88;;;12.27;100.00
44996;BME280;30729;49.486;10.792;2022-10-31T08:58:58;98139.03;;;12.37;100.00
44996;BME280;30729;49.486;10.792;2022-10-31T09:01:23;98132.50;;;12.58;100.00
44996;BME280;30729;49.486;10.792;2022-10-31T09:03:48;98129.06;;;12.64;100.00
44996;BME280;30729;49.486;10.792;2022-10-31T09:06:14;98128.19;;;12.48;100.00
44996;BME280;30729;49.486;10.792;2022-10-31T09:08:39;98129.56;;;12.53;100.00
44996;BME280;30729;49.486;10.792;2022-10-31T09:11:05;98127.22;;;12.42;100.00
44996;BME280;30729;49.486;10.792;2022-10-31T09:13:32;98123.22;;;12.34;100.00
44996;BME280;30729;49.486;10.792;2022-10-31T09:15:58;98125.56;;;12.35;100.00
44996;BME280;30729;49.486;10.792;2022-10-31T09:18:24;98126.94;;;12.49;100.00
44996;BME280;30729;49.486;10.792;2022-10-31T09:20:50;98125.53;;;12.54;100.00
44996;BME280;30729;49.486;10.792;2022-10-31T09:23:17;98127.16;;;12.88;100.00
44996;BME280;30729;49.486;10.792;2022-10-31T09:25:44;98126.97;;;13.01;100.00
44996;BME280;30729;49.486;10.792;2022-10-31T09:28:16;98128.78;;;13.22;100.00
44996;BME280;30729;49.486;10.792;2022-10-31T09:30:45;98123.88;;;13.41;100.00
44996;BME280;30729;49.486;10.792;2022-10-31T09:33:12;98119.22;;;13.38;100.00
44996;BME280;30729;49.486;10.792;2022-10-31T09:35:38;98116.28;;;13.66;100.00
44996;BME280;30729;49.486;10.792;2022-10-31T09:38:08;98118.88;;;13.69;100.00
44996;BME280;30729;49.486;10.792;2022-10-31T09:40:39;98114.81;;;13.94;100.00
44996;BME280;30729;49.486;10.792;2022-10-31T09:43:30;98119.59;;;14.18;100.00
44996;BME280;30729;49.486;10.792;2022-10-31T09:46:10;98115.56;;;14.19;100.00
44996;BME280;30729;49.486;10.792;2022-10-31T09:51:39;98118.03;;;14.41;100.00
44996;BME280;30729;49.486;10.792;2022-10-31T09:54:20;98111.66;;;14.40;100.00
44996;BME280;30729;49.486;10.792;2022-10-31T09:56:47;98111.09;;;14.12;100.00
44996;BME280;30729;49.486;10.792;2022-10-31T10:02:35;98108.13;;;14.30;100.00
44996;BME280;30729;49.486;10.792;2022-10-31T10:05:10;98098.19;;;14.44;100.00
44996;BME280;30729;49.486;10.792;2022-10-31T10:08:03;98096.56;;;14.23;100.00
44996;BME280;30729;49.486;10.792;2022-10-31T10:13:27;98094.28;;;14.66;100.00
44996;BME280;30729;49.486;10.792;2022-10-31T10:26:30;98096.59;;;15.47;100.00
44996;BME280;30729;49.486;10.792;2022-10-31T10:31:48;98090.91;;;15.41;100.00
44996;BME280;30729;49.486;10.792;2022-10-31T10:34:28;98092.38;;;15.72;100.00
44996;BME280;30729;49.486;10.792;2022-10-31T10:37:03;98078.16;;;16.01;100.00
44996;BME280;30729;49.486;10.792;2022-10-31T10:39:42;98078.00;;;16.10;100.00
44996;BME280;30729;49.486;10.792;2022-10-31T10:42:13;98073.50;;;16.19;100.00
44996;BME280;30729;49.486;10.792;2022-10-31T10:44:57;98070.28;;;16.05;100.00
44996;BME280;30729;49.486;10.792;2022-10-31T10:47:43;98073.66;;;15.89;100.00
44996;BME280;30729;49.486;10.792;2022-10-31T10:50:17;98070.84;;;16.09;100.00
44996;BME280;30729;49.486;10.792;2022-10-31T10:52:53;98064.91;;;16.28;100.00
44996;BME280;30729;49.486;10.792;2022-10-31T10:55:40;98058.72;;;16.24;100.00
44996;BME280;30729;49.486;10.792;2022-10-31T10:58:09;98056.63;;;16.19;100.00
44996;BME280;30729;49.486;10.792;2022-10-31T11:00:46;98050.00;;;16.16;100.00
44996;BME280;30729;49.486;10.792;2022-10-31T11:03:13;98044.84;;;16.15;100.00
44996;BME280;30729;49.486;10.792;2022-10-31T11:05:47;98046.00;;;16.28;100.00
44996;BME280;30729;49.486;10.792;2022-10-31T11:08:30;98037.19;;;16.41;100.00
44996;BME280;30729;49.486;10.792;2022-10-31T11:13:26;98029.41;;;16.56;100.00
44996;BME280;30729;49.486;10.792;2022-10-31T11:16:04;98025.31;;;16.57;100.00
44996;BME280;30729;49.486;10.792;2022-10-31T11:18:34;98023.59;;;16.66;100.00
44996;BME280;30729;49.486;10.792;2022-10-31T11:21:01;98022.34;;;16.67;100.00
44996;BME280;30729;49.486;10.792;2022-10-31T11:23:29;98012.06;;;16.63;100.00
44996;BME280;30729;49.486;10.792;2022-10-31T11:26:02;98000.50;;;16.82;100.00
44996;BME280;30729;49.486;10.792;2022-10-31T11:28:29;97999.56;;;16.96;100.00
44996;BME280;30729;49.486;10.792;2022-10-31T11:30:58;97992.75;;;17.08;100.00
44996;BME280;30729;49.486;10.792;2022-10-31T11:33:37;97991.69;;;17.06;100.00
44996;BME280;30729;49.486;10.792;2022-10-31T11:36:20;97994.31;;;17.15;100.00
44996;BME280;30729;49.486;10.792;2022-10-31T11:38:47;97999.16;;;17.15;100.00
44996;BME280;30729;49.486;10.792;2022-10-31T11:41:16;97990.53;;;17.24;100.00
44996;BME280;30729;49.486;10.792;2022-10-31T11:44:03;97988.56;;;17.41;100.00
44996;BME280;30729;49.486;10.792;2022-10-31T11:46:39;97982.16;;;17.35;100.00
44996;BME280;30729;49.486;10.792;2022-10-31T11:49:14;97980.41;;;17.43;100.00
44996;BME280;30729;49.486;10.792;2022-10-31T11:51:41;97981.41;;;17.40;100.00
44996;BME280;30729;49.486;10.792;2022-10-31T11:54:19;97985.06;;;17.63;100.00
44996;BME280;30729;49.486;10.792;2022-10-31T11:56:45;97974.28;;;17.56;100.00
44996;BME280;30729;49.486;10.792;2022-10-31T11:59:23;97977.38;;;17.63;100.00
44996;BME280;30729;49.486;10.792;2022-10-31T12:01:51;97973.56;;;17.61;100.00
44996;BME280;30729;49.486;10.792;2022-10-31T12:04:17;97963.06;;;17.73;100.00
44996;BME280;30729;49.486;10.792;2022-10-31T12:06:44;97967.72;;;17.76;100.00
44996;BME280;30729;49.486;10.792;2022-10-31T12:09:20;97962.88;;;17.82;100.00
44996;BME280;30729;49.486;10.792;2022-10-31T12:17:48;97943.94;;;17.82;100.00
44996;BME280;30729;49.486;10.792;2022-10-31T12:28:16;97949.59;;;17.94;100.00
44996;BME280;30729;49.486;10.792;2022-10-31T12:30:55;97943.47;;;18.01;100.00
44996;BME280;30729;49.486;10.792;2022-10-31T12:33:37;97939.59;;;17.98;100.00
44996;BME280;30729;49.486;10.792;2022-10-31T12:36:15;97944.47;;;17.92;100.00
44996;BME280;30729;49.486;10.792;2022-10-31T12:49:57;97913.44;;;17.81;100.00
44996;BME280;30729;49.486;10.792;2022-10-31T12:52:36;97907.31;;;17.82;100.00
44996;BME280;30729;49.486;10.792;2022-10-31T12:55:32;97908.31;;;17.79;100.00
44996;BME280;30729;49.486;10.792;2022-10-31T12:58:06;97902.16;;;17.86;100.00
44996;BME280;30729;49.486;10.792;2022-10-31T13:00:37;97899.63;;;17.89;100.00
44996;BME280;30729;49.486;10.792;2022-10-31T13:03:55;97893.47;;;17.79;100.00
44996;BME280;30729;49.486;10.792;2022-10-31T13:06:20;97896.22;;;17.73;100.00
44996;BME280;30729;49.486;10.792;2022-10-31T13:08:53;97888.09;;;17.75;100.00
44996;BME280;30729;49.486;10.792;2022-10-31T13:11:27;97886.56;;;17.74;100.00
44996;BME280;30729;49.486;10.792;2022-10-31T13:14:03;97878.56;;;17.73;100.00
44996;BME280;30729;49.486;10.792;2022-10-31T13:16:36;97877.59;;;17.76;100.00
44996;BME280;30729;49.486;10.792;2022-10-31T13:19:13;97872.94;;;17.73;100.00
44996;BME280;30729;49.486;10.792;2022-10-31T13:21:58;97874.53;;;17.74;100.00
44996;BME280;30729;49.486;10.792;2022-10-31T13:24:32;97875.75;;;17.73;100.00
44996;BME280;30729;49.486;10.792;2022-10-31T13:27:02;97865.25;;;17.73;100.00
44996;BME280;30729;49.486;10.792;2022-10-31T13:29:30;97864.78;;;17.75;100.00
44996;BME280;30729;49.486;10.792;2022-10-31T13:31:57;97858.38;;;17.80;100.00
44996;BME280;30729;49.486;10.792;2022-10-31T13:34:37;97864.25;;;17.82;100.00
44996;BME280;30729;49.486;10.792;2022-10-31T13:42:42;97855.31;;;18.17;100.00
44996;BME280;30729;49.486;10.792;2022-10-31T13:45:14;97857.59;;;18.30;100.00
44996;BME280;30729;49.486;10.792;2022-10-31T13:47:41;97844.78;;;18.40;100.00
44996;BME280;30729;49.486;10.792;2022-10-31T13:50:22;97842.72;;;18.46;100.00
44996;BME280;30729;49.486;10.792;2022-10-31T13:52:49;97844.00;;;18.45;100.00
44996;BME280;30729;49.486;10.792;2022-10-31T13:55:36;97846.31;;;18.41;100.00
44996;BME280;30729;49.486;10.792;2022-10-31T13:58:25;97836.84;;;18.38;100.00
44996;BME280;30729;49.486;10.792;2022-10-31T14:01:13;97830.97;;;18.31;100.00
44996;BME280;30729;49.486;10.792;2022-10-31T14:03:43;97829.94;;;18.23;100.00
44996;BME280;30729;49.486;10.792;2022-10-31T14:06:10;97825.59;;;18.10;100.00
44996;BME280;30729;49.486;10.792;2022-10-31T14:08:40;97823.28;;;18.03;100.00
44996;BME280;30729;49.486;10.792;2022-10-31T14:11:08;97821.00;;;17.96;100.00
44996;BME280;30729;49.486;10.792;2022-10-31T14:13:37;97817.16;;;17.88;100.00
44996;BME280;30729;49.486;10.792;2022-10-31T14:16:18;97814.34;;;17.82;100.00